Flight Track Log - Related Links

Times and Time Zones

All times are in EDT time to prevent confusion due to time zone crossing. See the N977MR flight status page for this flight to view local times or setup timezone preferences in your user account.

Time Position Orientation Groundspeed Altitude Reporting Facility
EDT Latitude Longitude Course Direction KTS MPH feet Rate Location/Type
Fri 03:29:14 PM 29.6072 -98.2722 90° East 255 293 9,800  Level Houston Center
Fri 03:30:16 PM 29.6228 -98.1800 79° East 291 335 11,800 1,887 Climbing Houston Center
Fri 03:31:18 PM 29.6417 -98.0703 79° East 323 372 13,700 1,839 Climbing Houston Center
Fri 03:32:00 PM 29.6500 -97.9416 90° East  Level FlightAware Approximate
Fri 03:32:20 PM 29.6428 -97.9606 89° East 341 392 15,600  Level Houston Center
Fri 03:33:00 PM 29.6500 -97.8496 90° East  Level FlightAware Approximate
Fri 03:33:23 PM 29.5808 -97.8625 126° Southeast 351 404 17,600  Level Houston Center
Fri 03:34:00 PM 29.6500 -97.7577 90° East  Level FlightAware Approximate
Fri 03:34:25 PM 29.5275 -97.7881 129° Southeast 353 406 18,900  Level Houston Center
Fri 03:35:27 PM 29.4808 -97.6600 113° Southeast 366 421 20,700 1,645 Climbing Houston Center
Fri 03:36:29 PM 29.4367 -97.5583 116° Southeast 367 422 22,300 1,452 Climbing Houston Center
Fri 03:37:31 PM 29.3725 -97.4672 129° Southeast 370 426 23,700 1,248 Climbing Houston Center
Fri 03:38:34 PM 29.3094 -97.3742 128° Southeast 370 426 24,900 624 Climbing Houston Center
Fri 03:39:36 PM 29.2586 -97.2625 118° Southeast 401 461 25,000 -339 Climbing Houston Center
Fri 03:40:38 PM 29.2122 -97.1178 110° East 410 472 24,200 -484 Descending Houston Center
Fri 03:41:40 PM 29.1725 -97.0161 114° Southeast 373 429 24,000 -96 Descending Houston Center
Fri 03:42:43 PM 29.0797 -96.9861 164° South 345 397 24,000  Level Houston Center
Fri 03:43:45 PM 28.9850 -96.9653 169° South 354 407 24,000  Level Houston Center
Fri 03:44:47 PM 28.9406 -96.8708 118° Southeast 374 430 24,000 -581 Level Houston Center
Fri 03:45:49 PM 28.9944 -96.7444 64° Northeast 375 432 22,800 -1,306 Descending Houston Center
Fri 03:46:51 PM 29.0331 -96.6394 67° East 362 417 21,300 -1,488 Descending Houston Center
Fri 03:47:54 PM 29.0711 -96.5394 66° East 349 402 19,700 -1,584 Descending Houston Center
Fri 03:48:56 PM 29.1111 -96.4422 65° Northeast 343 395 18,000 -1,699 Descending Houston Center
Fri 03:49:47 PM 29.1467 -96.3356 69° East 354 407 16,500 -1,839 Descending Houston Center
Fri 03:49:58 PM 29.1542 -96.3131 69° East 362 417 16,100 -1,701 Descending Houston Center
Fri 03:50:54 PM 29.1828 -96.2167 71° East 345 397 14,600 -1,692 Descending Houston Center
Fri 03:51:55 PM 29.2164 -96.1222 68° East 314 361 12,800 -1,191 Descending Houston Center
Fri 03:53:05 PM 29.2522 -96.0283 66° East 312 359 12,000 -1,024 Descending Houston Center
Fri 03:53:58 PM 29.2869 -95.9442 65° Northeast 299 344 10,700 -1,632 Descending Houston Center
Fri 03:54:59 PM 29.3169 -95.8544 69° East 284 327 8,900 -1,690 Descending Houston Center
Fri 03:55:09 PM 29.3211 -95.8419 69° East 292 336 8,700 -1,377 Descending Houston Center
Fri 03:56:00 PM 29.3369 -95.7708 76° East 261 300 7,500 -1,258 Descending Houston Center
Fri 03:56:11 PM 29.3397 -95.7606 73° East 271 312 7,400 -896 Descending Houston Center
Fri 03:57:07 PM 29.3656 -95.6933 66° East 235 270 6,500 -718 Descending Houston Center
Fri 03:58:08 PM 29.3992 -95.6222 62° Northeast 236 272 6,000 -689 Descending Houston Center
Fri 03:59:09 PM 29.4311 -95.5583 60° Northeast 225 259 5,100 -878 Descending Houston Center
Fri 04:00:11 PM 29.4656 -95.4967 57° Northeast 229 264 4,200 -923 Descending Houston Center
Fri 04:01:06 PM 29.4986 -95.4472 52° Northeast 212 244 3,300 -930 Descending Houston Center
Fri 04:01:22 PM 29.5069 -95.4339 54° Northeast 218 251 3,100 -689 Descending Houston Center
Fri 04:02:07 PM 29.5344 -95.4022 45° Northeast 186 214 2,600 -677 Descending Houston Center
Fri 04:02:24 PM 29.5431 -95.3919 46° Northeast 194 223 2,400 -689 Descending Houston Center
Fri 04:03:08 PM 29.5708 -95.3617 43° Northeast 164 189 1,900 -667 Descending Houston Center
Fri 04:03:27 PM 29.5767 -95.3542 48° Northeast 179 206 1,700 -885 Descending Houston Center
Fri 04:04:09 PM 29.6047 -95.3217 45° Northeast 177 204 1,000 -774 Descending Houston Center
Fri 04:04:29 PM 29.6122 -95.3147 39° Northeast 178 205 900 -787 Descending Houston Center
Fri 04:05:10 PM 29.6336 -95.2917 43° Northeast 123 142 200 -774 Descending Houston Center
Fri 04:05:31 PM 29.6378 -95.2867 46° Northeast 143 165 100 -286 Descending Houston Center
Fri 04:07:00 PM 29.6333 -95.2667 90° East  Level FlightAware Approximate

Login

Don't have an account? Register now (free) for customized features, flight alerts, and more!